Norma, North Dakota
Current Conditions -  °F | °C
As of 7:15 AM on Thursday 27 Nov 2014 (Local Time) from K08D Reporting Station
Overcast Overcast  
Wind Chill: -2°   Ceiling: 300
Heat Index: 10°   Visibility: 8mi
Dew Point: 10°   Wind: 9mph
Humidity: 100%   Direction: 170°S
Pressure: 30.18"   Gusts: NA
Location:  48.6651°N, 102.033°W
Report Text: K08D 271315Z AUTO 17008KT 8SM OVC003 M12/M12 A3018 RMK AO2
Loading
Personal Weather Stations






























Interactive Weather Map New forecast layout! Learn more

10-Day Weather Forecast

Advertisements
Track Severe Weather on mobile